CheckWX is a tool to help pilots better visualize weather data.  It is not intended as a substitute for an official pre-flight weather briefing.

06:57:10 UTC

PAQT TAF
Nuiqsut Airport
Nuiqsut, Alaska, USA
PAQT 041131Z 0412/0512 12008KT P6SM BKN200 FM042200 12012KT P6SM BKN200

Apr-4@
12:00 UTC

Apr-4 @ 12:00 UTC

Apr-4@
22:00 UTC

Apr-4 @ 22:00 UTC

TAF PAQT 041131Z 0412/0512 12008KT P6SM BKN200

Expired

Wind
  • 120° at 8 KTS
Cloud Levels
  • Broken at 20,000' AGL

Apr-4@
22:00 UTC

Apr-4 @ 22:00 UTC

Apr-5@
12:00 UTC

Apr-5 @ 12:00 UTC

FM042200 12012KT P6SM BKN200

From

From Standard forecast or significant change

Wind
  • 120° at 12 KTS
Cloud Levels
  • Broken at 20,000' AGL